sensor_id;sensor_type;location;lat;lon;timestamp;temperature;humidity
75683;HTU21D;64295;44.772;39.872;2023-06-01T00:01:49;18.79;74.58
75683;HTU21D;64295;44.772;39.872;2023-06-01T00:04:15;18.81;74.61
75683;HTU21D;64295;44.772;39.872;2023-06-01T00:06:43;18.82;74.63
75683;HTU21D;64295;44.772;39.872;2023-06-01T00:09:09;18.83;74.63
75683;HTU21D;64295;44.772;39.872;2023-06-01T00:11:35;18.84;74.63
75683;HTU21D;64295;44.772;39.872;2023-06-01T00:14:01;18.82;74.65
75683;HTU21D;64295;44.772;39.872;2023-06-01T00:16:27;18.80;74.72
75683;HTU21D;64295;44.772;39.872;2023-06-01T00:18:56;18.77;74.81
75683;HTU21D;64295;44.772;39.872;2023-06-01T00:21:23;18.77;74.86
75683;HTU21D;64295;44.772;39.872;2023-06-01T00:23:49;18.77;74.88
75683;HTU21D;64295;44.772;39.872;2023-06-01T00:26:15;18.76;74.89
75683;HTU21D;64295;44.772;39.872;2023-06-01T00:28:46;18.76;74.89
75683;HTU21D;64295;44.772;39.872;2023-06-01T00:31:12;18.70;74.99
75683;HTU21D;64295;44.772;39.872;2023-06-01T00:33:38;18.70;75.03
75683;HTU21D;64295;44.772;39.872;2023-06-01T00:36:04;18.66;75.09
75683;HTU21D;64295;44.772;39.872;2023-06-01T00:38:30;18.66;75.12
75683;HTU21D;64295;44.772;39.872;2023-06-01T00:40:56;18.66;75.10
75683;HTU21D;64295;44.772;39.872;2023-06-01T00:43:22;18.65;75.11
75683;HTU21D;64295;44.772;39.872;2023-06-01T00:45:48;18.62;75.18
75683;HTU21D;64295;44.772;39.872;2023-06-01T00:48:15;18.61;75.23
75683;HTU21D;64295;44.772;39.872;2023-06-01T00:50:44;18.55;75.32
75683;HTU21D;64295;44.772;39.872;2023-06-01T00:53:16;18.53;75.37
75683;HTU21D;64295;44.772;39.872;2023-06-01T00:55:43;18.54;75.35
75683;HTU21D;64295;44.772;39.872;2023-06-01T00:58:09;18.54;75.34
75683;HTU21D;64295;44.772;39.872;2023-06-01T01:00:35;18.53;75.40
75683;HTU21D;64295;44.772;39.872;2023-06-01T01:03:06;18.54;75.39
75683;HTU21D;64295;44.772;39.872;2023-06-01T01:05:34;18.56;75.37
75683;HTU21D;64295;44.772;39.872;2023-06-01T01:08:09;18.57;75.34
75683;HTU21D;64295;44.772;39.872;2023-06-01T01:10:41;18.57;75.34
75683;HTU21D;64295;44.772;39.872;2023-06-01T01:16:28;18.59;75.27
75683;HTU21D;64295;44.772;39.872;2023-06-01T01:30:06;18.57;75.33
75683;HTU21D;64295;44.772;39.872;2023-06-01T01:32:33;18.56;75.38
75683;HTU21D;64295;44.772;39.872;2023-06-01T01:35:01;18.54;75.44
75683;HTU21D;64295;44.772;39.872;2023-06-01T01:37:28;18.54;75.47
75683;HTU21D;64295;44.772;39.872;2023-06-01T01:39:55;18.55;75.49
75683;HTU21D;64295;44.772;39.872;2023-06-01T01:42:21;18.56;75.49
75683;HTU21D;64295;44.772;39.872;2023-06-01T01:44:47;18.58;75.50
75683;HTU21D;64295;44.772;39.872;2023-06-01T01:47:21;18.61;75.52
75683;HTU21D;64295;44.772;39.872;2023-06-01T01:49:56;18.59;75.51
75683;HTU21D;64295;44.772;39.872;2023-06-01T01:52:39;18.59;75.57
75683;HTU21D;64295;44.772;39.872;2023-06-01T01:55:10;18.58;75.57
75683;HTU21D;64295;44.772;39.872;2023-06-01T01:57:37;18.59;75.57
75683;HTU21D;64295;44.772;39.872;2023-06-01T02:00:05;18.59;75.60
75683;HTU21D;64295;44.772;39.872;2023-06-01T02:02:39;18.59;75.62
75683;HTU21D;64295;44.772;39.872;2023-06-01T02:05:05;18.58;75.65
75683;HTU21D;64295;44.772;39.872;2023-06-01T02:07:31;18.58;75.69
75683;HTU21D;64295;44.772;39.872;2023-06-01T02:10:02;18.56;75.75
75683;HTU21D;64295;44.772;39.872;2023-06-01T02:12:29;18.55;75.81
75683;HTU21D;64295;44.772;39.872;2023-06-01T02:14:55;18.54;75.86
75683;HTU21D;64295;44.772;39.872;2023-06-01T02:17:21;18.54;75.87
75683;HTU21D;64295;44.772;39.872;2023-06-01T02:19:47;18.53;75.92
75683;HTU21D;64295;44.772;39.872;2023-06-01T02:22:13;18.52;75.95
75683;HTU21D;64295;44.772;39.872;2023-06-01T02:24:39;18.53;75.93
75683;HTU21D;64295;44.772;39.872;2023-06-01T02:27:05;18.52;75.95
75683;HTU21D;64295;44.772;39.872;2023-06-01T02:29:32;18.52;75.98
75683;HTU21D;64295;44.772;39.872;2023-06-01T02:31:58;18.52;75.99
75683;HTU21D;64295;44.772;39.872;2023-06-01T02:34:24;18.52;75.98
75683;HTU21D;64295;44.772;39.872;2023-06-01T02:36:50;18.49;76.01
75683;HTU21D;64295;44.772;39.872;2023-06-01T02:39:17;18.47;76.06
75683;HTU21D;64295;44.772;39.872;2023-06-01T02:41:43;18.47;76.08
75683;HTU21D;64295;44.772;39.872;2023-06-01T02:44:09;18.48;76.00
75683;HTU21D;64295;44.772;39.872;2023-06-01T02:46:35;18.50;75.97
75683;HTU21D;64295;44.772;39.872;2023-06-01T02:49:01;18.50;75.96
75683;HTU21D;64295;44.772;39.872;2023-06-01T02:51:27;18.49;76.00
75683;HTU21D;64295;44.772;39.872;2023-06-01T02:54:05;18.53;75.94
75683;HTU21D;64295;44.772;39.872;2023-06-01T02:56:31;18.56;75.87
75683;HTU21D;64295;44.772;39.872;2023-06-01T02:59:20;18.62;75.72
75683;HTU21D;64295;44.772;39.872;2023-06-01T03:01:52;18.63;75.63
75683;HTU21D;64295;44.772;39.872;2023-06-01T03:04:18;18.66;75.55
75683;HTU21D;64295;44.772;39.872;2023-06-01T03:06:46;18.70;75.50
75683;HTU21D;64295;44.772;39.872;2023-06-01T03:09:26;18.73;75.47
75683;HTU21D;64295;44.772;39.872;2023-06-01T03:11:55;18.78;75.46
75683;HTU21D;64295;44.772;39.872;2023-06-01T03:14:21;18.80;75.44
75683;HTU21D;64295;44.772;39.872;2023-06-01T03:16:48;18.85;75.38
75683;HTU21D;64295;44.772;39.872;2023-06-01T03:19:17;18.88;75.35
75683;HTU21D;64295;44.772;39.872;2023-06-01T03:21:46;18.87;75.24
75683;HTU21D;64295;44.772;39.872;2023-06-01T03:24:14;18.89;75.18
75683;HTU21D;64295;44.772;39.872;2023-06-01T03:26:40;18.88;75.20
75683;HTU21D;64295;44.772;39.872;2023-06-01T03:29:06;18.92;75.19
75683;HTU21D;64295;44.772;39.872;2023-06-01T03:31:34;18.94;75.22
75683;HTU21D;64295;44.772;39.872;2023-06-01T03:34:01;18.95;75.27
75683;HTU21D;64295;44.772;39.872;2023-06-01T03:36:27;18.97;75.28
75683;HTU21D;64295;44.772;39.872;2023-06-01T03:38:54;18.99;75.29
75683;HTU21D;64295;44.772;39.872;2023-06-01T03:41:22;18.99;75.35
75683;HTU21D;64295;44.772;39.872;2023-06-01T03:43:48;19.01;75.41
75683;HTU21D;64295;44.772;39.872;2023-06-01T03:46:14;19.02;75.37
75683;HTU21D;64295;44.772;39.872;2023-06-01T03:48:41;19.07;75.31
75683;HTU21D;64295;44.772;39.872;2023-06-01T03:51:08;19.08;75.30
75683;HTU21D;64295;44.772;39.872;2023-06-01T03:53:34;19.09;75.30
75683;HTU21D;64295;44.772;39.872;2023-06-01T03:56:00;19.10;75.31
75683;HTU21D;64295;44.772;39.872;2023-06-01T03:58:38;19.08;75.38
75683;HTU21D;64295;44.772;39.872;2023-06-01T04:01:04;19.07;75.42
75683;HTU21D;64295;44.772;39.872;2023-06-01T04:03:32;19.09;75.42
75683;HTU21D;64295;44.772;39.872;2023-06-01T04:05:58;19.10;75.47
75683;HTU21D;64295;44.772;39.872;2023-06-01T04:08:25;19.11;75.44
75683;HTU21D;64295;44.772;39.872;2023-06-01T04:10:52;19.12;75.40
75683;HTU21D;64295;44.772;39.872;2023-06-01T04:13:18;19.15;75.31
75683;HTU21D;64295;44.772;39.872;2023-06-01T04:15:45;19.20;75.24
75683;HTU21D;64295;44.772;39.872;2023-06-01T04:18:13;19.22;75.21
75683;HTU21D;64295;44.772;39.872;2023-06-01T04:21:05;19.25;75.18
75683;HTU21D;64295;44.772;39.872;2023-06-01T04:23:33;19.25;75.22
75683;HTU21D;64295;44.772;39.872;2023-06-01T04:25:59;19.24;75.30
75683;HTU21D;64295;44.772;39.872;2023-06-01T04:28:27;19.26;75.19
75683;HTU21D;64295;44.772;39.872;2023-06-01T04:30:53;19.29;75.09
75683;HTU21D;64295;44.772;39.872;2023-06-01T04:33:21;19.39;74.93
75683;HTU21D;64295;44.772;39.872;2023-06-01T04:35:51;19.48;74.67
75683;HTU21D;64295;44.772;39.872;2023-06-01T04:38:23;19.61;74.39
75683;HTU21D;64295;44.772;39.872;2023-06-01T04:40:51;19.72;74.07
75683;HTU21D;64295;44.772;39.872;2023-06-01T04:43:19;19.82;73.86
75683;HTU21D;64295;44.772;39.872;2023-06-01T04:45:46;19.87;73.80
75683;HTU21D;64295;44.772;39.872;2023-06-01T04:48:13;19.90;73.77
75683;HTU21D;64295;44.772;39.872;2023-06-01T04:50:59;19.92;73.72
75683;HTU21D;64295;44.772;39.872;2023-06-01T04:53:25;19.98;73.63
75683;HTU21D;64295;44.772;39.872;2023-06-01T04:55:53;20.01;73.57
75683;HTU21D;64295;44.772;39.872;2023-06-01T04:58:19;20.05;73.56
75683;HTU21D;64295;44.772;39.872;2023-06-01T05:00:45;20.14;73.46
75683;HTU21D;64295;44.772;39.872;2023-06-01T05:03:11;20.22;73.29
75683;HTU21D;64295;44.772;39.872;2023-06-01T05:05:37;20.30;73.15
75683;HTU21D;64295;44.772;39.872;2023-06-01T05:08:03;20.35;73.03
75683;HTU21D;64295;44.772;39.872;2023-06-01T05:10:29;20.42;72.95
75683;HTU21D;64295;44.772;39.872;2023-06-01T05:12:56;20.49;72.80
75683;HTU21D;64295;44.772;39.872;2023-06-01T05:15:22;20.55;72.73
75683;HTU21D;64295;44.772;39.872;2023-06-01T05:17:48;20.64;72.58
75683;HTU21D;64295;44.772;39.872;2023-06-01T05:20:16;20.72;72.43
75683;HTU21D;64295;44.772;39.872;2023-06-01T05:22:47;20.73;72.43
75683;HTU21D;64295;44.772;39.872;2023-06-01T05:25:13;20.77;72.37
75683;HTU21D;64295;44.772;39.872;2023-06-01T05:27:39;20.86;72.26
75683;HTU21D;64295;44.772;39.872;2023-06-01T05:30:06;20.93;72.12
75683;HTU21D;64295;44.772;39.872;2023-06-01T05:32:32;21.02;71.94
75683;HTU21D;64295;44.772;39.872;2023-06-01T05:35:18;21.05;71.86
75683;HTU21D;64295;44.772;39.872;2023-06-01T05:37:46;21.08;71.85
75683;HTU21D;64295;44.772;39.872;2023-06-01T05:40:12;21.11;71.76
75683;HTU21D;64295;44.772;39.872;2023-06-01T05:42:38;21.17;71.68
75683;HTU21D;64295;44.772;39.872;2023-06-01T05:45:05;21.25;71.56
75683;HTU21D;64295;44.772;39.872;2023-06-01T05:47:31;21.35;71.40
75683;HTU21D;64295;44.772;39.872;2023-06-01T05:49:58;21.40;71.32
75683;HTU21D;64295;44.772;39.872;2023-06-01T05:52:24;21.46;71.22
75683;HTU21D;64295;44.772;39.872;2023-06-01T05:54:50;21.49;71.15
75683;HTU21D;64295;44.772;39.872;2023-06-01T05:57:20;21.52;71.09
75683;HTU21D;64295;44.772;39.872;2023-06-01T05:59:46;21.64;70.90
75683;HTU21D;64295;44.772;39.872;2023-06-01T06:02:15;21.70;70.71
75683;HTU21D;64295;44.772;39.872;2023-06-01T06:04:41;21.79;70.53
75683;HTU21D;64295;44.772;39.872;2023-06-01T06:07:07;21.88;70.34
75683;HTU21D;64295;44.772;39.872;2023-06-01T06:09:33;21.98;70.13
75683;HTU21D;64295;44.772;39.872;2023-06-01T06:11:59;22.06;69.97
75683;HTU21D;64295;44.772;39.872;2023-06-01T06:14:27;22.12;69.87
75683;HTU21D;64295;44.772;39.872;2023-06-01T06:16:53;22.21;69.72
75683;HTU21D;64295;44.772;39.872;2023-06-01T06:19:18;22.28;69.55
75683;HTU21D;64295;44.772;39.872;2023-06-01T06:21:44;22.38;69.45
75683;HTU21D;64295;44.772;39.872;2023-06-01T06:24:10;22.48;69.31
75683;HTU21D;64295;44.772;39.872;2023-06-01T06:26:37;22.58;69.15
75683;HTU21D;64295;44.772;39.872;2023-06-01T06:29:03;22.66;69.07
75683;HTU21D;64295;44.772;39.872;2023-06-01T06:31:29;22.79;68.95
75683;HTU21D;64295;44.772;39.872;2023-06-01T06:33:55;22.90;68.81
75683;HTU21D;64295;44.772;39.872;2023-06-01T06:36:21;22.98;68.71
75683;HTU21D;64295;44.772;39.872;2023-06-01T06:38:47;23.07;68.63
75683;HTU21D;64295;44.772;39.872;2023-06-01T06:41:13;23.16;68.48
75683;HTU21D;64295;44.772;39.872;2023-06-01T06:43:39;23.25;68.39
75683;HTU21D;64295;44.772;39.872;2023-06-01T06:46:05;23.37;68.20
75683;HTU21D;64295;44.772;39.872;2023-06-01T06:48:31;23.47;68.06
75683;HTU21D;64295;44.772;39.872;2023-06-01T06:50:57;23.56;67.99
75683;HTU21D;64295;44.772;39.872;2023-06-01T06:53:23;23.67;67.86
75683;HTU21D;64295;44.772;39.872;2023-06-01T06:55:49;23.77;67.67
75683;HTU21D;64295;44.772;39.872;2023-06-01T06:58:15;23.84;67.58
75683;HTU21D;64295;44.772;39.872;2023-06-01T07:00:41;23.86;67.69
75683;HTU21D;64295;44.772;39.872;2023-06-01T07:03:07;23.94;67.67
75683;HTU21D;64295;44.772;39.872;2023-06-01T07:05:34;24.04;67.49
75683;HTU21D;64295;44.772;39.872;2023-06-01T07:08:00;24.17;67.33
75683;HTU21D;64295;44.772;39.872;2023-06-01T07:10:26;24.27;67.20
75683;HTU21D;64295;44.772;39.872;2023-06-01T07:12:52;24.27;67.23
75683;HTU21D;64295;44.772;39.872;2023-06-01T07:15:18;24.33;67.20
75683;HTU21D;64295;44.772;39.872;2023-06-01T07:17:44;24.39;67.17
75683;HTU21D;64295;44.772;39.872;2023-06-01T07:20:10;24.48;66.99
75683;HTU21D;64295;44.772;39.872;2023-06-01T07:22:37;24.58;66.85
75683;HTU21D;64295;44.772;39.872;2023-06-01T07:25:04;24.72;66.69
75683;HTU21D;64295;44.772;39.872;2023-06-01T07:27:31;24.94;66.43
75683;HTU21D;64295;44.772;39.872;2023-06-01T07:29:57;25.06;66.11
75683;HTU21D;64295;44.772;39.872;2023-06-01T07:32:24;25.01;66.09
75683;HTU21D;64295;44.772;39.872;2023-06-01T07:34:50;25.00;66.11
75683;HTU21D;64295;44.772;39.872;2023-06-01T07:37:17;25.05;66.16
75683;HTU21D;64295;44.772;39.872;2023-06-01T07:39:48;25.24;65.78
75683;HTU21D;64295;44.772;39.872;2023-06-01T07:42:14;25.39;65.44
75683;HTU21D;64295;44.772;39.872;2023-06-01T07:44:40;25.52;65.21
75683;HTU21D;64295;44.772;39.872;2023-06-01T07:47:06;25.65;64.97
75683;HTU21D;64295;44.772;39.872;2023-06-01T07:49:33;25.58;64.95
75683;HTU21D;64295;44.772;39.872;2023-06-01T07:52:02;25.47;65.31
75683;HTU21D;64295;44.772;39.872;2023-06-01T07:54:28;25.47;65.33
75683;HTU21D;64295;44.772;39.872;2023-06-01T07:56:54;25.42;65.85
75683;HTU21D;64295;44.772;39.872;2023-06-01T07:59:20;25.30;65.72
75683;HTU21D;64295;44.772;39.872;2023-06-01T08:01:53;25.14;65.91
75683;HTU21D;64295;44.772;39.872;2023-06-01T08:04:20;25.06;65.93
75683;HTU21D;64295;44.772;39.872;2023-06-01T08:06:47;24.99;65.94
75683;HTU21D;64295;44.772;39.872;2023-06-01T08:09:13;24.85;65.72
75683;HTU21D;64295;44.772;39.872;2023-06-01T08:11:39;24.72;65.70
75683;HTU21D;64295;44.772;39.872;2023-06-01T08:14:05;24.60;65.50
75683;HTU21D;64295;44.772;39.872;2023-06-01T08:16:34;24.54;64.82
75683;HTU21D;64295;44.772;39.872;2023-06-01T08:19:00;24.49;64.77
75683;HTU21D;64295;44.772;39.872;2023-06-01T08:21:26;24.48;63.92
75683;HTU21D;64295;44.772;39.872;2023-06-01T08:23:53;24.46;63.00
75683;HTU21D;64295;44.772;39.872;2023-06-01T08:26:22;24.42;62.53
75683;HTU21D;64295;44.772;39.872;2023-06-01T08:28:49;24.34;62.61
75683;HTU21D;64295;44.772;39.872;2023-06-01T08:31:22;24.39;62.23
75683;HTU21D;64295;44.772;39.872;2023-06-01T08:33:50;24.38;61.83
75683;HTU21D;64295;44.772;39.872;2023-06-01T08:36:17;24.26;60.99
75683;HTU21D;64295;44.772;39.872;2023-06-01T08:38:43;24.15;61.22
75683;HTU21D;64295;44.772;39.872;2023-06-01T08:41:44;24.06;61.63
75683;HTU21D;64295;44.772;39.872;2023-06-01T08:44:12;24.05;61.77
75683;HTU21D;64295;44.772;39.872;2023-06-01T08:46:41;24.20;60.95
75683;HTU21D;64295;44.772;39.872;2023-06-01T08:49:07;24.25;60.45
75683;HTU21D;64295;44.772;39.872;2023-06-01T08:51:36;24.19;59.84
75683;HTU21D;64295;44.772;39.872;2023-06-01T08:54:04;24.09;60.23
75683;HTU21D;64295;44.772;39.872;2023-06-01T08:56:31;24.00;59.91
75683;HTU21D;64295;44.772;39.872;2023-06-01T08:58:57;23.77;60.14
75683;HTU21D;64295;44.772;39.872;2023-06-01T09:01:25;23.79;60.71
75683;HTU21D;64295;44.772;39.872;2023-06-01T09:03:51;23.98;60.60
75683;HTU21D;64295;44.772;39.872;2023-06-01T09:06:17;24.23;60.40
75683;HTU21D;64295;44.772;39.872;2023-06-01T09:08:47;24.53;60.23
75683;HTU21D;64295;44.772;39.872;2023-06-01T09:11:13;24.61;59.91
75683;HTU21D;64295;44.772;39.872;2023-06-01T09:13:40;24.53;60.03
75683;HTU21D;64295;44.772;39.872;2023-06-01T09:16:07;24.46;60.24
75683;HTU21D;64295;44.772;39.872;2023-06-01T09:18:33;24.46;59.82
75683;HTU21D;64295;44.772;39.872;2023-06-01T09:21:14;24.50;60.16
75683;HTU21D;64295;44.772;39.872;2023-06-01T09:23:43;24.69;59.68
75683;HTU21D;64295;44.772;39.872;2023-06-01T09:26:11;24.90;59.64
75683;HTU21D;64295;44.772;39.872;2023-06-01T09:28:57;25.17;59.51
75683;HTU21D;64295;44.772;39.872;2023-06-01T09:31:38;25.27;59.26
75683;HTU21D;64295;44.772;39.872;2023-06-01T09:34:06;25.13;59.26
75683;HTU21D;64295;44.772;39.872;2023-06-01T09:36:33;25.07;59.48
75683;HTU21D;64295;44.772;39.872;2023-06-01T09:39:10;25.13;59.11
75683;HTU21D;64295;44.772;39.872;2023-06-01T09:41:59;25.09;57.47
75683;HTU21D;64295;44.772;39.872;2023-06-01T09:44:31;24.91;58.03
75683;HTU21D;64295;44.772;39.872;2023-06-01T09:46:59;24.79;57.65
75683;HTU21D;64295;44.772;39.872;2023-06-01T09:49:31;24.73;57.71
75683;HTU21D;64295;44.772;39.872;2023-06-01T09:54:49;24.80;57.87
75683;HTU21D;64295;44.772;39.872;2023-06-01T09:57:26;24.95;57.73
75683;HTU21D;64295;44.772;39.872;2023-06-01T09:59:54;25.10;57.57
75683;HTU21D;64295;44.772;39.872;2023-06-01T10:02:22;25.21;57.39
75683;HTU21D;64295;44.772;39.872;2023-06-01T10:04:53;25.23;57.61
75683;HTU21D;64295;44.772;39.872;2023-06-01T10:07:43;25.32;57.73
75683;HTU21D;64295;44.772;39.872;2023-06-01T10:10:14;25.34;57.47
75683;HTU21D;64295;44.772;39.872;2023-06-01T10:12:47;25.50;57.48
75683;HTU21D;64295;44.772;39.872;2023-06-01T10:15:20;25.64;56.74
75683;HTU21D;64295;44.772;39.872;2023-06-01T10:17:46;25.63;55.99
75683;HTU21D;64295;44.772;39.872;2023-06-01T10:20:14;25.63;55.65
75683;HTU21D;64295;44.772;39.872;2023-06-01T10:22:41;25.52;55.68
75683;HTU21D;64295;44.772;39.872;2023-06-01T10:25:10;25.59;55.37
75683;HTU21D;64295;44.772;39.872;2023-06-01T10:27:51;25.65;55.07
75683;HTU21D;64295;44.772;39.872;2023-06-01T10:30:19;25.76;55.10
75683;HTU21D;64295;44.772;39.872;2023-06-01T10:32:46;25.88;54.84
75683;HTU21D;64295;44.772;39.872;2023-06-01T10:40:44;25.39;54.69
75683;HTU21D;64295;44.772;39.872;2023-06-01T10:46:01;25.49;54.79
75683;HTU21D;64295;44.772;39.872;2023-06-01T10:48:53;25.44;54.61
75683;HTU21D;64295;44.772;39.872;2023-06-01T10:51:21;25.45;54.62
75683;HTU21D;64295;44.772;39.872;2023-06-01T10:53:47;25.57;54.00
75683;HTU21D;64295;44.772;39.872;2023-06-01T10:56:23;25.61;53.55
75683;HTU21D;64295;44.772;39.872;2023-06-01T10:59:19;25.53;53.78
75683;HTU21D;64295;44.772;39.872;2023-06-01T11:01:46;25.54;53.75
75683;HTU21D;64295;44.772;39.872;2023-06-01T11:04:13;25.64;53.10
75683;HTU21D;64295;44.772;39.872;2023-06-01T11:06:40;25.68;53.43
75683;HTU21D;64295;44.772;39.872;2023-06-01T11:09:09;25.80;53.24
75683;HTU21D;64295;44.772;39.872;2023-06-01T11:14:28;25.50;53.21
75683;HTU21D;64295;44.772;39.872;2023-06-01T11:17:25;25.51;53.17
75683;HTU21D;64295;44.772;39.872;2023-06-01T11:20:00;25.33;53.17
75683;HTU21D;64295;44.772;39.872;2023-06-01T11:22:34;25.15;53.71
75683;HTU21D;64295;44.772;39.872;2023-06-01T11:25:04;25.15;53.42
75683;HTU21D;64295;44.772;39.872;2023-06-01T11:27:32;25.05;53.72
75683;HTU21D;64295;44.772;39.872;2023-06-01T11:29:57;25.00;53.72
75683;HTU21D;64295;44.772;39.872;2023-06-01T11:32:30;24.93;54.13
75683;HTU21D;64295;44.772;39.872;2023-06-01T11:35:14;25.00;54.03
75683;HTU21D;64295;44.772;39.872;2023-06-01T11:37:40;24.87;54.48
75683;HTU21D;64295;44.772;39.872;2023-06-01T11:40:08;24.76;54.52
75683;HTU21D;64295;44.772;39.872;2023-06-01T11:42:39;24.72;54.94
75683;HTU21D;64295;44.772;39.872;2023-06-01T11:45:13;24.78;54.86
75683;HTU21D;64295;44.772;39.872;2023-06-01T11:47:39;24.74;55.19
75683;HTU21D;64295;44.772;39.872;2023-06-01T11:50:20;24.75;54.99
75683;HTU21D;64295;44.772;39.872;2023-06-01T11:52:49;24.62;54.84
75683;HTU21D;64295;44.772;39.872;2023-06-01T11:55:15;24.57;55.27
75683;HTU21D;64295;44.772;39.872;2023-06-01T11:57:42;24.57;55.30
75683;HTU21D;64295;44.772;39.872;2023-06-01T12:00:12;24.62;55.37
75683;HTU21D;64295;44.772;39.872;2023-06-01T12:02:38;24.68;55.20
75683;HTU21D;64295;44.772;39.872;2023-06-01T12:05:06;24.64;55.01
75683;HTU21D;64295;44.772;39.872;2023-06-01T12:07:50;24.63;55.15
75683;HTU21D;64295;44.772;39.872;2023-06-01T12:10:21;24.68;55.33
75683;HTU21D;64295;44.772;39.872;2023-06-01T12:12:47;24.75;55.03
75683;HTU21D;64295;44.772;39.872;2023-06-01T12:15:14;24.80;54.84
75683;HTU21D;64295;44.772;39.872;2023-06-01T12:20:43;24.82;53.27
75683;HTU21D;64295;44.772;39.872;2023-06-01T12:23:17;24.63;53.72
75683;HTU21D;64295;44.772;39.872;2023-06-01T12:25:55;24.50;53.81
75683;HTU21D;64295;44.772;39.872;2023-06-01T12:28:25;24.50;54.00
75683;HTU21D;64295;44.772;39.872;2023-06-01T12:31:11;24.57;53.92
75683;HTU21D;64295;44.772;39.872;2023-06-01T12:33:42;24.63;53.92
75683;HTU21D;64295;44.772;39.872;2023-06-01T12:36:27;24.57;53.93
75683;HTU21D;64295;44.772;39.872;2023-06-01T12:38:54;24.54;53.97
75683;HTU21D;64295;44.772;39.872;2023-06-01T12:41:20;24.53;54.18
75683;HTU21D;64295;44.772;39.872;2023-06-01T12:43:48;24.47;54.22
75683;HTU21D;64295;44.772;39.872;2023-06-01T12:46:22;24.49;54.16
75683;HTU21D;64295;44.772;39.872;2023-06-01T12:48:49;24.48;54.43
75683;HTU21D;64295;44.772;39.872;2023-06-01T12:51:16;24.56;54.44
75683;HTU21D;64295;44.772;39.872;2023-06-01T12:53:42;24.59;54.30
75683;HTU21D;64295;44.772;39.872;2023-06-01T12:56:08;24.54;54.55
75683;HTU21D;64295;44.772;39.872;2023-06-01T12:58:35;24.55;54.68
75683;HTU21D;64295;44.772;39.872;2023-06-01T13:01:01;24.63;54.28
75683;HTU21D;64295;44.772;39.872;2023-06-01T13:03:28;24.57;53.97
75683;HTU21D;64295;44.772;39.872;2023-06-01T13:05:57;24.46;53.91
75683;HTU21D;64295;44.772;39.872;2023-06-01T13:08:23;24.34;54.04
75683;HTU21D;64295;44.772;39.872;2023-06-01T13:10:49;24.29;53.75
75683;HTU21D;64295;44.772;39.872;2023-06-01T13:13:15;24.19;53.79
75683;HTU21D;64295;44.772;39.872;2023-06-01T13:15:42;24.16;53.49
75683;HTU21D;64295;44.772;39.872;2023-06-01T13:18:11;24.14;53.88
75683;HTU21D;64295;44.772;39.872;2023-06-01T13:20:37;24.16;53.75
75683;HTU21D;64295;44.772;39.872;2023-06-01T13:23:05;24.13;53.25
75683;HTU21D;64295;44.772;39.872;2023-06-01T13:25:32;24.02;53.33
75683;HTU21D;64295;44.772;39.872;2023-06-01T13:27:59;23.97;53.73
75683;HTU21D;64295;44.772;39.872;2023-06-01T13:30:26;23.99;53.57
75683;HTU21D;64295;44.772;39.872;2023-06-01T13:32:58;23.97;53.65
75683;HTU21D;64295;44.772;39.872;2023-06-01T13:35:27;23.96;53.67
75683;HTU21D;64295;44.772;39.872;2023-06-01T13:37:53;23.91;53.64
75683;HTU21D;64295;44.772;39.872;2023-06-01T13:40:19;23.85;53.42
75683;HTU21D;64295;44.772;39.872;2023-06-01T13:42:49;23.77;53.62
75683;HTU21D;64295;44.772;39.872;2023-06-01T13:45:16;23.75;53.59
75683;HTU21D;64295;44.772;39.872;2023-06-01T13:47:43;23.72;53.52
75683;HTU21D;64295;44.772;39.872;2023-06-01T13:50:10;23.67;53.60
75683;HTU21D;64295;44.772;39.872;2023-06-01T13:52:41;23.65;53.69
75683;HTU21D;64295;44.772;39.872;2023-06-01T13:55:08;23.61;53.61
75683;HTU21D;64295;44.772;39.872;2023-06-01T13:57:40;23.61;53.48
75683;HTU21D;64295;44.772;39.872;2023-06-01T14:00:09;23.56;53.51
75683;HTU21D;64295;44.772;39.872;2023-06-01T14:02:42;23.56;53.49
75683;HTU21D;64295;44.772;39.872;2023-06-01T14:05:08;23.57;53.65
75683;HTU21D;64295;44.772;39.872;2023-06-01T14:07:36;23.67;53.75
75683;HTU21D;64295;44.772;39.872;2023-06-01T14:10:05;23.73;53.49
75683;HTU21D;64295;44.772;39.872;2023-06-01T14:12:32;23.72;53.08
75683;HTU21D;64295;44.772;39.872;2023-06-01T14:14:58;23.71;52.88
75683;HTU21D;64295;44.772;39.872;2023-06-01T14:17:27;23.65;53.14
75683;HTU21D;64295;44.772;39.872;2023-06-01T14:19:53;23.68;53.12
75683;HTU21D;64295;44.772;39.872;2023-06-01T14:22:19;23.69;52.91
75683;HTU21D;64295;44.772;39.872;2023-06-01T14:24:45;23.67;52.69
75683;HTU21D;64295;44.772;39.872;2023-06-01T14:27:11;23.62;53.01
75683;HTU21D;64295;44.772;39.872;2023-06-01T14:29:37;23.62;52.69
75683;HTU21D;64295;44.772;39.872;2023-06-01T14:32:04;23.49;52.79
75683;HTU21D;64295;44.772;39.872;2023-06-01T14:34:30;23.38;53.13
75683;HTU21D;64295;44.772;39.872;2023-06-01T14:36:56;23.26;53.39
75683;HTU21D;64295;44.772;39.872;2023-06-01T14:39:23;23.15;53.55
75683;HTU21D;64295;44.772;39.872;2023-06-01T14:41:49;23.05;53.67
75683;HTU21D;64295;44.772;39.872;2023-06-01T14:44:15;22.96;53.81
75683;HTU21D;64295;44.772;39.872;2023-06-01T14:46:41;22.92;53.91
75683;HTU21D;64295;44.772;39.872;2023-06-01T14:49:07;22.90;53.81
75683;HTU21D;64295;44.772;39.872;2023-06-01T14:51:33;22.92;53.88
75683;HTU21D;64295;44.772;39.872;2023-06-01T14:53:59;22.99;53.59
75683;HTU21D;64295;44.772;39.872;2023-06-01T14:56:25;23.08;53.64
75683;HTU21D;64295;44.772;39.872;2023-06-01T14:58:52;23.17;53.35
75683;HTU21D;64295;44.772;39.872;2023-06-01T15:01:18;23.21;53.41
75683;HTU21D;64295;44.772;39.872;2023-06-01T15:03:44;23.21;53.59
75683;HTU21D;64295;44.772;39.872;2023-06-01T15:06:10;23.18;53.29
75683;HTU21D;64295;44.772;39.872;2023-06-01T15:08:36;23.13;53.35
75683;HTU21D;64295;44.772;39.872;2023-06-01T15:11:02;23.02;53.59
75683;HTU21D;64295;44.772;39.872;2023-06-01T15:13:29;22.92;53.69
75683;HTU21D;64295;44.772;39.872;2023-06-01T15:15:55;22.80;53.80
75683;HTU21D;64295;44.772;39.872;2023-06-01T15:18:21;22.68;54.17
75683;HTU21D;64295;44.772;39.872;2023-06-01T15:20:47;22.61;54.39
75683;HTU21D;64295;44.772;39.872;2023-06-01T15:23:18;22.53;54.65
75683;HTU21D;64295;44.772;39.872;2023-06-01T15:25:44;22.48;54.78
75683;HTU21D;64295;44.772;39.872;2023-06-01T15:28:11;22.36;54.97
75683;HTU21D;64295;44.772;39.872;2023-06-01T15:30:36;22.31;55.15
75683;HTU21D;64295;44.772;39.872;2023-06-01T15:33:03;22.23;55.23
75683;HTU21D;64295;44.772;39.872;2023-06-01T15:35:31;22.16;55.40
75683;HTU21D;64295;44.772;39.872;2023-06-01T15:37:57;22.10;55.48
75683;HTU21D;64295;44.772;39.872;2023-06-01T15:40:23;22.02;55.65
75683;HTU21D;64295;44.772;39.872;2023-06-01T15:42:54;21.91;55.79